Time;durP1;ratioP1;P1;durP2;ratioP2;P2;SDS_P1;SDS_P2;PMS_P1;PMS_P2;Temp;Humidity;BMP_temperature;BMP_pressure;BME280_temperature;BME280_humidity;BME280_pressure;Samples;Min_cycle;Max_cycle;Signal;HPM_P1;HPM_P2
2021/06/09 00:01:04;;;;;;;21.48;18.10;;;18.20;92.30;;;18.46;71.24;98059.28;5044200;28;20072;-39
2021/06/09 00:03:33;;;;;;;18.65;16.50;;;18.10;92.30;;;18.44;71.07;98059.47;5044020;28;20049;-38
2021/06/09 00:06:00;;;;;;;24.60;19.25;;;18.10;93.00;;;18.42;71.10;98058.03;5043634;28;20049;-38
2021/06/09 00:08:28;;;;;;;19.65;17.55;;;18.20;92.20;;;18.42;71.11;98061.56;5043445;28;20050;-39
2021/06/09 00:10:56;;;;;;;16.95;15.15;;;18.10;92.00;;;18.41;70.94;98059.88;5025858;28;20053;-38
2021/06/09 00:13:29;;;;;;;17.92;16.02;;;18.10;91.70;;;18.37;71.05;98063.19;5044100;28;20045;-38
2021/06/09 00:16:03;;;;;;;19.70;14.95;;;18.10;91.70;;;18.32;71.06;98069.19;5043906;28;20298;-39
2021/06/09 00:18:31;;;;;;;18.77;15.52;;;18.00;91.90;;;18.28;71.01;98065.19;5043082;28;20057;-38
2021/06/09 00:21:00;;;;;;;17.92;15.95;;;17.90;92.00;;;18.28;71.01;98063.34;5043484;28;20251;-39
2021/06/09 00:23:30;;;;;;;19.92;16.25;;;17.90;91.90;;;18.28;71.13;98066.06;5043679;28;20060;-38
2021/06/09 00:26:04;;;;;;;17.33;15.45;;;18.00;91.80;;;18.29;71.22;98066.88;5043548;28;20063;-39
2021/06/09 00:28:34;;;;;;;18.98;16.45;;;18.00;91.70;;;18.30;71.18;98057.78;5043259;28;20055;-39
2021/06/09 00:31:05;;;;;;;18.90;15.75;;;18.10;91.70;;;18.29;71.12;98054.22;5043358;28;20080;-38
2021/06/09 00:33:35;;;;;;;18.85;16.92;;;18.00;91.60;;;18.28;71.15;98065.19;5041287;28;20041;-38
2021/06/09 00:36:04;;;;;;;21.13;17.48;;;18.00;91.70;;;18.28;71.23;98054.41;5043245;28;20060;-39
2021/06/09 00:38:32;;;;;;;18.67;16.58;;;18.00;91.80;;;18.27;71.34;98059.00;5042988;28;20053;-38
2021/06/09 00:41:01;;;;;;;18.65;16.48;;;18.00;91.80;;;18.28;71.18;98063.34;5043304;28;20405;-38
2021/06/09 00:43:34;;;;;;;17.77;15.85;;;18.10;91.80;;;18.28;71.46;98062.50;5043476;28;20064;-38
2021/06/09 00:46:09;;;;;;;19.08;16.55;;;18.00;91.80;;;18.24;71.01;98069.34;5043199;28;20041;-38
2021/06/09 00:48:43;;;;;;;19.75;15.30;;;17.90;92.00;;;18.22;70.99;98079.47;5042749;28;20055;-39
2021/06/09 00:51:18;;;;;;;;;;;17.90;92.30;;;18.14;70.82;98080.47;5043791;28;20075;-38
2021/06/09 00:53:50;;;;;;;21.17;17.77;;;17.80;93.10;;;18.15;71.26;98079.47;5040302;28;19917;-38
2021/06/09 00:56:21;;;;;;;23.98;16.63;;;17.80;93.00;;;18.17;71.43;98087.34;5042940;28;20247;-38
2021/06/09 00:58:51;;;;;;;23.67;19.08;;;17.80;93.00;;;18.15;71.53;98073.25;5042687;28;20072;-38
2021/06/09 01:01:25;;;;;;;23.73;19.50;;;17.80;93.30;;;18.13;71.50;98078.00;5042664;28;20053;-39
2021/06/09 01:03:53;;;;;;;21.52;18.50;;;17.80;93.40;;;18.12;71.60;98066.38;5042978;28;20058;-38
2021/06/09 01:06:22;;;;;;;21.60;17.33;;;17.80;93.30;;;18.13;71.79;98070.75;5058009;28;20049;-38
2021/06/09 01:08:52;;;;;;;19.85;16.90;;;17.80;93.10;;;18.10;71.63;98071.13;5042833;28;20058;-39
2021/06/09 01:11:24;;;;;;;20.33;17.27;;;17.80;93.10;;;18.08;71.79;98059.72;5058218;28;20242;-38
2021/06/09 01:13:53;;;;;;;19.88;17.45;;;17.80;93.00;;;18.10;71.79;98063.88;5042712;28;20067;-39
2021/06/09 01:16:23;;;;;;;20.42;17.02;;;17.80;92.90;;;18.12;71.67;98065.53;5042577;28;20087;-38
2021/06/09 01:18:54;;;;;;;19.55;17.23;;;17.90;92.80;;;18.14;71.81;98068.88;5041511;28;20045;-39
2021/06/09 01:21:31;;;;;;;19.50;17.38;;;17.90;92.70;;;18.13;71.75;98059.97;5042579;28;20485;-38
2021/06/09 01:24:01;;;;;;;21.10;18.88;;;17.90;92.90;;;18.12;71.70;98060.97;5042485;28;20061;-39
2021/06/09 01:26:31;;;;;;;21.90;17.65;;;17.90;92.90;;;18.15;71.81;98059.78;5041313;28;20053;-38
2021/06/09 01:29:01;;;;;;;23.17;17.30;;;17.90;92.60;;;18.16;71.56;98059.56;5042001;28;20057;-39
2021/06/09 01:31:29;;;;;;;20.02;17.25;;;17.90;92.50;;;18.17;71.56;98066.63;5042295;28;20053;-39
2021/06/09 01:34:07;;;;;;;19.38;16.60;;;17.90;92.50;;;18.18;71.52;98067.44;5042336;28;20056;-38
2021/06/09 01:36:40;;;;;;;18.92;16.92;;;17.90;92.60;;;18.14;71.56;98071.56;5042273;28;20055;-38
2021/06/09 01:39:16;;;;;;;20.60;17.88;;;17.80;92.90;;;17.99;71.97;98069.00;5041542;28;20369;-38
2021/06/09 01:41:47;;;;;;;21.35;18.83;;;17.70;93.60;;;18.01;71.63;98075.00;5042039;28;20063;-39
2021/06/09 01:44:15;;;;;;;19.90;17.23;;;17.60;93.70;;;18.00;71.75;98076.06;5042150;28;20049;-39
2021/06/09 01:46:44;;;;;;;20.77;17.55;;;17.60;93.60;;;18.01;71.80;98069.63;5042012;28;20159;-38
2021/06/09 01:49:14;;;;;;;19.30;17.17;;;17.70;93.40;;;18.00;71.71;98076.06;5041642;28;20049;-38
2021/06/09 01:51:43;;;;;;;19.02;16.85;;;17.60;93.10;;;17.99;71.73;98069.00;5041980;28;20083;-38
2021/06/09 01:54:12;;;;;;;20.67;17.73;;;17.60;93.20;;;17.99;71.65;98082.47;5040161;28;20046;-39
2021/06/09 01:56:40;;;;;;;20.67;18.48;;;17.70;93.20;;;17.98;71.54;98070.03;5041652;28;20057;-38
2021/06/09 01:59:18;;;;;;;21.05;17.48;;;17.60;93.10;;;17.96;71.54;98083.69;5041658;28;20052;-38
2021/06/09 02:01:50;;;;;;;20.30;18.08;;;17.60;93.50;;;17.96;71.67;98070.22;5041797;28;20068;-38
2021/06/09 02:04:18;;;;;;;20.20;18.02;;;17.60;93.50;;;17.96;71.77;98075.63;5041820;28;20045;-38
2021/06/09 02:06:46;;;;;;;20.00;17.20;;;17.70;93.50;;;17.96;71.89;98066.72;5041529;28;20038;-38
2021/06/09 02:09:14;;;;;;;21.35;16.23;;;17.70;93.50;;;17.97;71.85;98069.22;5041433;28;20053;-38
2021/06/09 02:11:46;;;;;;;21.75;17.92;;;17.70;93.50;;;17.97;71.82;98062.97;5041797;28;20061;-39
2021/06/09 02:14:19;;;;;;;19.23;17.17;;;17.60;93.50;;;17.95;71.69;98063.19;5041669;28;20041;-38
2021/06/09 02:16:49;;;;;;;21.87;17.63;;;17.60;93.50;;;17.94;71.79;98064.22;5042082;28;20049;-38
2021/06/09 02:19:18;;;;;;;20.98;16.50;;;17.60;93.60;;;17.96;71.84;98061.31;5041243;28;20057;-39
2021/06/09 02:21:46;;;;;;;17.55;15.57;;;17.60;93.70;;;17.97;71.98;98057.59;5041054;28;20065;-38
2021/06/09 02:24:14;;;;;;;18.98;16.10;;;17.70;93.50;;;17.98;71.82;98053.88;5041462;28;20050;-38
2021/06/09 02:26:43;;;;;;;18.73;16.80;;;17.60;93.20;;;17.93;72.06;98059.00;5024174;28;20052;-39
2021/06/09 02:29:13;;;;;;;17.63;15.63;;;17.50;93.90;;;17.86;71.82;98054.41;5040968;28;20147;-38
2021/06/09 02:31:50;;;;;;;18.88;16.10;;;17.40;94.00;;;17.85;71.96;98052.75;5040296;28;20381;-38
2021/06/09 02:34:24;;;;;;;18.27;16.17;;;17.50;94.20;;;17.83;71.91;98054.78;5040472;28;20051;-38
2021/06/09 02:36:56;;;;;;;17.75;15.68;;;17.50;93.80;;;17.80;72.01;98052.50;5041422;28;20067;-38
2021/06/09 02:39:24;;;;;;;19.08;15.93;;;17.50;93.50;;;17.79;72.01;98053.50;5041110;28;20053;-38
2021/06/09 02:41:52;;;;;;;20.60;16.67;;;17.40;93.40;;;17.80;71.92;98055.19;5041330;28;20050;-38
2021/06/09 02:44:20;;;;;;;18.85;16.35;;;17.50;93.50;;;17.82;72.05;98053.13;5041131;28;20061;-38
2021/06/09 02:46:59;;;;;;;17.52;15.57;;;17.50;93.30;;;17.84;72.08;98050.28;5041159;28;20044;-39
2021/06/09 02:49:32;;;;;;;19.08;17.05;;;17.60;93.20;;;17.87;72.12;98048.03;5023542;28;20045;-39
2021/06/09 02:52:15;;;;;;;18.05;16.05;;;17.60;93.10;;;17.87;72.00;98053.41;5024175;28;20045;-38
2021/06/09 02:54:57;;;;;;;18.75;15.65;;;17.70;93.10;;;17.88;72.14;98041.59;5022599;28;20048;-38
2021/06/09 02:57:39;;;;;;;18.73;16.70;;;17.60;93.00;;;17.89;71.89;98040.56;5035409;28;20350;-38
2021/06/09 03:00:16;;;;;;;19.15;16.73;;;17.70;93.20;;;17.88;72.10;98040.75;5004455;28;20314;-38
2021/06/09 03:02:44;;;;;;;17.83;15.98;;;17.60;93.10;;;17.87;72.09;98042.63;5004591;28;20381;-38
2021/06/09 03:05:26;;;;;;;18.10;16.13;;;17.70;93.20;;;17.89;71.78;98039.72;5021096;28;20064;-38
2021/06/09 03:08:23;;;;;;;16.75;15.05;;;17.60;93.60;;;17.89;71.82;98047.78;5003784;28;20068;-38
2021/06/09 03:10:57;;;;;;;18.67;16.60;;;17.70;92.60;;;17.87;71.91;98042.63;5020837;28;20060;-38
2021/06/09 03:14:04;;;;;;;18.10;15.05;;;17.60;92.90;;;17.89;71.98;98045.09;5003922;28;20056;-38
2021/06/09 03:16:50;;;;;;;16.67;14.95;;;17.70;94.00;;;17.87;71.99;98039.09;5006713;28;20061;-38
2021/06/09 03:19:35;;;;;;;18.17;16.15;;;17.60;93.20;;;17.87;72.05;98041.78;5020178;28;20247;-38
2021/06/09 03:22:23;;;;;;;20.17;16.10;;;17.60;93.10;;;17.85;71.92;98041.97;5021254;28;20053;-38
2021/06/09 03:24:56;;;;;;;18.35;16.48;;;17.50;93.10;;;17.85;71.90;98039.28;5021130;28;20060;-38
2021/06/09 03:27:36;;;;;;;16.73;14.95;;;17.50;93.20;;;17.85;72.04;98052.75;5021186;28;20243;-38
2021/06/09 03:30:10;;;;;;;18.42;15.48;;;17.50;93.10;;;17.83;72.11;98041.31;5003408;28;20068;-38
2021/06/09 03:32:54;;;;;;;17.67;15.77;;;17.60;93.20;;;17.83;71.99;98046.69;5021028;28;20046;-38
2021/06/09 03:35:44;;;;;;;19.92;16.05;;;17.60;93.20;;;17.82;71.86;98038.84;5018998;28;20209;-38
2021/06/09 03:38:47;;;;;;;20.08;15.23;;;17.60;93.10;;;17.80;71.85;98047.09;5040382;28;20053;-38
2021/06/09 03:41:18;;;;;;;19.25;16.08;;;17.60;93.30;;;17.82;72.23;98046.91;5040812;28;20049;-38
2021/06/09 03:43:52;;;;;;;17.77;15.90;;;17.60;93.20;;;17.82;72.12;98042.34;5026371;28;20076;-39
2021/06/09 03:46:25;;;;;;;20.70;16.58;;;17.60;92.90;;;17.84;72.04;98040.31;5027280;28;20054;-38
2021/06/09 03:48:57;;;;;;;19.52;16.58;;;17.60;92.80;;;17.86;71.88;98054.41;5026814;28;20056;-38
2021/06/09 03:51:28;;;;;;;19.40;16.27;;;17.60;93.00;;;17.85;72.04;98051.91;5027103;28;20049;-38
2021/06/09 03:53:59;;;;;;;21.02;17.60;;;17.60;93.10;;;17.84;71.90;98051.09;5043861;28;20058;-38
2021/06/09 03:56:31;;;;;;;18.73;16.85;;;17.60;93.10;;;17.84;72.00;98055.66;5023127;28;20057;-38
2021/06/09 03:59:01;;;;;;;19.45;16.10;;;17.60;93.10;;;17.82;71.88;98052.31;5043390;28;20041;-38
2021/06/09 04:01:34;;;;;;;22.10;17.85;;;17.50;93.20;;;17.78;72.03;98051.88;5043800;28;20060;-38
2021/06/09 04:04:05;;;;;;;19.52;17.38;;;17.50;93.30;;;17.74;71.96;98049.75;5044189;28;20401;-38
2021/06/09 04:06:39;;;;;;;24.00;17.60;;;17.40;93.40;;;17.75;71.89;98056.81;5043923;28;20057;-39
2021/06/09 04:09:09;;;;;;;19.25;16.40;;;17.40;93.50;;;17.74;72.11;98055.13;5026561;28;20541;-38
2021/06/09 04:11:39;;;;;;;21.15;17.90;;;17.40;93.40;;;17.74;72.24;98055.13;5026711;28;20046;-38
2021/06/09 04:14:09;;;;;;;18.52;16.50;;;17.50;93.60;;;17.74;72.03;98053.28;5026736;28;20347;-38
2021/06/09 04:16:39;;;;;;;19.30;17.08;;;17.50;93.50;;;17.78;72.23;98059.13;5026636;28;20280;-38
2021/06/09 04:19:09;;;;;;;21.63;17.25;;;17.50;93.60;;;17.82;72.48;98060.38;5026099;28;20200;-38
2021/06/09 04:21:37;;;;;;;20.52;17.65;;;17.60;93.60;;;17.83;72.46;98057.47;5026483;28;20370;-38
2021/06/09 04:24:06;;;;;;;20.08;16.67;;;17.60;93.50;;;17.87;72.47;98060.63;5043669;28;20054;-38
2021/06/09 04:26:37;;;;;;;20.92;18.63;;;17.60;93.50;;;17.89;72.45;98055.88;5025993;28;20052;-38
2021/06/09 04:29:07;;;;;;;19.60;16.55;;;17.70;93.50;;;17.95;72.34;98059.66;5026164;28;20052;-38
2021/06/09 04:31:35;;;;;;;19.90;17.80;;;17.80;93.40;;;17.98;72.37;98064.66;5072491;22;20062;-33
2021/06/09 04:34:03;;;;;;;24.80;17.50;;;17.80;93.20;;;18.00;72.43;98066.09;5073979;28;20239;-33
2021/06/09 04:36:31;;;;;;;18.98;16.00;;;17.80;93.10;;;18.04;72.44;98064.69;5083044;28;20049;-33
2021/06/09 04:38:59;;;;;;;18.42;16.10;;;17.90;93.10;;;18.09;72.52;98064.09;5082603;28;20048;-33
2021/06/09 04:41:27;;;;;;;19.20;16.80;;;18.00;92.80;;;18.12;72.27;98068.25;5065805;28;20060;-33
2021/06/09 04:43:55;;;;;;;20.05;17.30;;;18.00;92.50;;;18.12;72.15;98060.16;5083427;28;20048;-33
2021/06/09 04:46:24;;;;;;;19.85;17.02;;;17.90;92.50;;;18.10;72.22;98068.44;5065710;28;20249;-33
2021/06/09 04:48:56;;;;;;;19.15;17.00;;;17.90;92.60;;;18.09;72.16;98066.78;5082766;28;20044;-33
2021/06/09 04:51:33;;;;;;;18.02;16.13;;;17.90;92.60;;;18.07;72.18;98066.97;5082971;28;20052;-33
2021/06/09 04:54:06;;;;;;;17.88;15.90;;;17.90;92.50;;;18.04;72.15;98067.38;5082005;28;20052;-33
2021/06/09 04:56:37;;;;;;;17.92;15.60;;;17.80;92.70;;;18.06;72.15;98067.16;5064153;28;20241;-33
2021/06/09 04:59:08;;;;;;;19.02;16.98;;;17.80;92.70;;;18.08;72.31;98065.94;5082046;28;20047;-33
2021/06/09 05:01:39;;;;;;;19.63;17.38;;;17.90;92.90;;;18.09;72.27;98064.09;5079916;28;20223;-33
2021/06/09 05:04:07;;;;;;;18.50;16.23;;;17.90;92.90;;;18.09;72.34;98069.47;5083333;28;20056;-33
2021/06/09 05:06:36;;;;;;;20.38;17.02;;;17.90;92.90;;;18.12;72.15;98070.94;5065308;28;20062;-33
2021/06/09 05:09:07;;;;;;;17.10;15.35;;;17.90;92.80;;;18.08;72.23;98067.81;5082218;28;20056;-33
2021/06/09 05:11:49;;;;;;;18.23;16.17;;;17.90;92.70;;;18.07;72.07;98072.38;5065293;28;20045;-33
2021/06/09 05:14:26;;;;;;;20.25;16.80;;;17.90;92.70;;;18.10;72.23;98065.75;5065239;28;20070;-33
2021/06/09 05:16:56;;;;;;;18.45;16.50;;;17.90;92.70;;;18.09;72.33;98059.53;5064960;28;20058;-33
2021/06/09 05:19:30;;;;;;;17.77;15.88;;;17.90;92.80;;;18.14;72.32;98068.88;5064760;28;20430;-33
2021/06/09 05:22:14;;;;;;;17.58;15.60;;;18.00;92.70;;;18.15;72.19;98059.78;5065449;28;20052;-33
2021/06/09 05:24:43;;;;;;;19.42;16.77;;;18.00;92.80;;;18.13;72.49;98068.06;5082552;28;20056;-33
2021/06/09 05:27:15;;;;;;;18.38;16.52;;;18.00;93.10;;;18.18;72.46;98067.44;5064134;28;20055;-33
2021/06/09 05:29:45;;;;;;;18.98;16.98;;;18.00;93.10;;;18.17;72.55;98068.50;5082379;28;20237;-33
2021/06/09 05:32:14;;;;;;;18.58;16.67;;;18.00;93.10;;;18.15;72.63;98068.69;5064916;28;20040;-33
2021/06/09 05:34:43;;;;;;;18.83;16.70;;;18.00;93.40;;;18.16;72.62;98070.34;5064843;28;20054;-33
2021/06/09 05:37:14;;;;;;;19.70;16.70;;;18.00;93.60;;;18.21;72.74;98073.28;5081975;28;20268;-33
2021/06/09 05:39:43;;;;;;;18.95;16.80;;;18.10;93.50;;;18.20;72.81;98068.06;5064010;28;20083;-33
2021/06/09 05:42:14;;;;;;;18.60;16.63;;;18.10;93.70;;;18.27;72.88;98077.03;5082532;28;20392;-33
2021/06/09 05:44:45;;;;;;;18.27;16.38;;;18.20;93.70;;;18.26;72.66;98076.22;5081917;28;20122;-33
2021/06/09 05:47:14;;;;;;;17.77;15.77;;;18.20;93.50;;;18.30;72.70;98082.84;5081715;28;20052;-33
2021/06/09 05:49:42;;;;;;;19.83;17.77;;;18.20;93.20;;;18.34;72.82;98074.34;5081486;28;20056;-33
2021/06/09 05:52:11;;;;;;;18.08;16.13;;;18.20;93.20;;;18.38;72.78;98078.31;5081879;28;20354;-33
2021/06/09 05:54:42;;;;;;;21.75;16.55;;;18.30;92.80;;;18.33;72.58;98080.78;5081919;28;20353;-33
2021/06/09 05:57:11;;;;;;;16.70;14.95;;;18.30;92.90;;;18.31;72.59;98072.91;5080462;28;20219;-33
2021/06/09 05:59:40;;;;;;;18.38;16.38;;;18.20;92.90;;;18.34;72.61;98077.03;5079922;28;20052;-32
2021/06/09 06:02:08;;;;;;;20.10;15.95;;;18.20;92.80;;;18.25;72.75;98076.41;5080372;28;20374;-33
2021/06/09 06:04:37;;;;;;;18.27;16.27;;;18.10;92.20;;;18.28;72.65;98075.97;5063376;28;20048;-32
2021/06/09 06:07:06;;;;;;;17.40;15.57;;;18.10;92.90;;;18.29;72.65;98069.56;5080874;28;20540;-33
2021/06/09 06:09:34;;;;;;;18.13;16.23;;;18.10;93.40;;;18.29;72.74;98073.09;5063558;28;20350;-32
2021/06/09 06:12:03;;;;;;;18.08;16.20;;;18.20;93.40;;;18.24;72.97;98072.03;5080526;28;20041;-33
2021/06/09 06:14:31;;;;;;;18.38;16.42;;;18.10;93.70;;;18.22;72.96;98072.25;5063833;28;20070;-33
2021/06/09 06:16:59;;;;;;;18.00;16.05;;;18.10;93.80;;;18.25;73.19;98074.53;5063601;28;20044;-33
2021/06/09 06:19:36;;;;;;;18.10;16.20;;;18.10;94.10;;;18.29;72.98;98074.97;5063675;28;20067;-33
2021/06/09 06:22:10;;;;;;;20.58;16.73;;;18.20;94.00;;;18.33;73.13;98075.41;5081265;28;20049;-32
2021/06/09 06:24:41;;;;;;;20.15;16.90;;;18.30;93.80;;;18.25;73.40;98079.91;5081462;28;20056;-33
2021/06/09 06:27:12;;;;;;;19.73;17.02;;;18.20;93.80;;;18.29;73.37;98074.97;5080916;28;20261;-33
2021/06/09 06:29:43;;;;;;;18.92;16.90;;;18.30;94.30;;;18.27;72.81;98085.94;5080580;28;20048;-33
2021/06/09 06:32:14;;;;;;;18.85;16.92;;;18.20;92.00;;;18.26;73.40;98080.75;5081214;28;20368;-33
2021/06/09 06:34:49;;;;;;;22.80;17.40;;;18.20;93.70;;;18.30;73.42;98079.34;5079049;28;20237;-33
2021/06/09 06:37:21;;;;;;;21.77;17.60;;;18.30;93.90;;;18.13;73.20;98080.69;5079942;28;20060;-33
2021/06/09 06:39:52;;;;;;;20.80;18.05;;;18.10;93.20;;;18.23;73.40;98079.28;5081260;28;20044;-32
2021/06/09 06:42:21;;;;;;;22.88;17.65;;;18.20;93.70;;;18.32;73.26;98082.66;5063382;28;20063;-33
2021/06/09 06:44:49;;;;;;;23.52;18.25;;;18.30;93.10;;;18.30;73.02;98074.78;5080987;28;20229;-33
2021/06/09 06:47:19;;;;;;;19.27;17.25;;;18.30;93.10;;;18.35;72.93;98076.03;5080730;28;20048;-33
2021/06/09 06:49:50;;;;;;;21.08;17.27;;;18.40;92.10;;;18.41;72.82;98078.75;5081095;28;20050;-32
2021/06/09 06:52:18;;;;;;;21.20;18.77;;;18.40;92.60;;;18.46;72.94;98080.84;5044262;28;20048;-33
2021/06/09 06:54:46;;;;;;;22.05;17.13;;;18.50;93.00;;;18.46;72.83;98078.16;5080953;28;20048;-33
2021/06/09 06:57:14;;;;;;;21.35;17.50;;;18.50;92.30;;;18.56;72.96;98081.31;5062254;28;20060;-33
2021/06/09 06:59:45;;;;;;;19.10;17.02;;;18.60;92.80;;;18.62;73.10;98082.34;5061566;28;20067;-33
2021/06/09 07:02:15;;;;;;;19.02;16.95;;;18.70;93.10;;;18.58;73.05;98081.94;5070994;28;20272;-33
2021/06/09 07:04:43;;;;;;;17.88;15.95;;;18.70;91.50;;;18.68;72.82;98076.97;5062038;28;20215;-33
2021/06/09 07:07:12;;;;;;;20.60;18.33;;;18.70;92.60;;;18.76;72.89;98075.13;5062067;28;20140;-33
2021/06/09 07:09:40;;;;;;;17.20;15.50;;;18.80;92.50;;;18.70;72.29;98074.91;5080694;28;20040;-33
2021/06/09 07:12:09;;;;;;;17.55;14.52;;;18.80;89.80;;;18.70;72.19;98080.31;5081106;28;20051;-33
2021/06/09 07:14:41;;;;;;;15.05;13.27;;;18.80;90.70;;;18.79;72.35;98082.84;5080839;28;20047;-33
2021/06/09 07:17:11;;;;;;;16.02;14.27;;;18.90;90.90;;;18.88;72.31;98081.63;5063653;28;20057;-33
2021/06/09 07:19:39;;;;;;;17.42;15.13;;;19.00;91.10;;;18.95;72.38;98081.66;5067152;28;20067;-33
2021/06/09 07:22:16;;;;;;;17.05;14.60;;;19.10;91.30;;;18.97;72.12;98085.81;5068348;28;20056;-33
2021/06/09 07:24:44;;;;;;;16.98;14.80;;;19.10;90.70;;;19.00;72.17;98084.56;5084544;28;20361;-33
2021/06/09 07:27:14;;;;;;;18.10;15.65;;;19.20;90.90;;;19.01;72.07;98088.94;5066711;28;20062;-33
2021/06/09 07:29:44;;;;;;;19.80;17.33;;;19.20;89.70;;;19.08;72.52;98093.31;5066981;28;20063;-33
2021/06/09 07:32:12;;;;;;;18.92;16.35;;;19.20;90.50;;;19.14;72.20;98088.13;5068234;28;20063;-33
2021/06/09 07:34:41;;;;;;;20.90;16.98;;;19.30;91.10;;;19.19;72.13;98091.88;5070305;28;20040;-33
2021/06/09 07:37:16;;;;;;;19.85;17.33;;;19.40;90.80;;;19.19;72.27;98091.03;5083142;28;20060;-33
2021/06/09 07:39:54;;;;;;;20.70;17.42;;;19.40;90.40;;;19.26;72.15;98091.88;5083264;28;20241;-33
2021/06/09 07:42:26;;;;;;;18.70;16.48;;;19.50;90.60;;;19.32;71.93;98101.03;5082075;28;20070;-33
2021/06/09 07:45:16;;;;;;;22.05;17.80;;;19.50;90.40;;;19.35;72.25;98100.59;5068227;28;20347;-33
2021/06/09 07:47:47;;;;;;;21.13;17.30;;;19.60;91.40;;;19.44;72.26;98093.97;5067303;28;20127;-33
2021/06/09 07:50:32;;;;;;;20.75;18.55;;;19.60;90.90;;;19.50;72.36;98097.69;5075477;28;20062;-33
2021/06/09 07:53:10;;;;;;;19.58;15.93;;;19.80;90.80;;;19.56;72.38;98100.41;5080085;28;20056;-34
2021/06/09 07:55:42;;;;;;;22.02;16.63;;;19.80;90.30;;;19.60;72.30;98098.97;5081095;28;20067;-33
2021/06/09 07:58:11;;;;;;;22.50;18.75;;;19.90;90.20;;;19.64;71.95;98096.69;5084461;28;20261;-33
2021/06/09 08:00:40;;;;;;;20.45;17.42;;;19.90;89.90;;;19.66;71.78;98097.31;5073593;28;20059;-33
2021/06/09 08:03:09;;;;;;;20.35;18.15;;;19.90;89.70;;;19.71;71.66;98097.50;5092481;28;20051;-33
2021/06/09 08:05:41;;;;;;;19.63;17.50;;;19.90;89.60;;;19.76;71.64;98107.72;5092366;28;20052;-33
2021/06/09 08:08:13;;;;;;;22.23;17.70;;;20.00;89.60;;;19.83;71.86;98105.81;5094562;28;20044;-32
2021/06/09 08:10:43;;;;;;;20.27;18.08;;;20.10;89.90;;;19.90;72.05;98106.66;5083479;28;20743;-32
2021/06/09 08:13:12;;;;;;;21.33;17.05;;;20.20;89.70;;;19.98;71.76;98103.72;5062741;28;20051;-33
2021/06/09 08:15:41;;;;;;;20.23;17.02;;;20.30;89.80;;;20.03;71.82;98106.63;5076806;28;20211;-32
2021/06/09 08:18:12;;;;;;;26.95;18.88;;;20.40;89.20;;;20.08;71.23;98106.00;5058175;28;20057;-32
2021/06/09 08:21:04;;;;;;;21.35;18.00;;;20.40;88.30;;;20.11;71.34;98102.06;5050060;28;20261;-32
2021/06/09 08:23:34;;;;;;;18.38;16.42;;;20.40;88.20;;;20.16;71.16;98100.38;5066660;28;20072;-32
2021/06/09 08:26:14;;;;;;;17.08;15.27;;;20.40;88.40;;;20.21;71.18;98102.44;5051617;28;20048;-33
2021/06/09 08:28:47;;;;;;;19.00;16.35;;;20.50;88.10;;;20.29;70.93;98095.97;5065508;28;20070;-32
2021/06/09 08:31:23;;;;;;;18.48;16.58;;;20.60;88.00;;;20.35;70.83;98095.13;5066962;28;20309;-32
2021/06/09 08:33:58;;;;;;;18.55;16.00;;;20.70;88.80;;;20.39;70.76;98105.28;5067504;28;20230;-32
2021/06/09 08:36:29;;;;;;;17.80;15.77;;;20.70;87.70;;;20.40;70.60;98093.44;5066779;28;20368;-32
2021/06/09 08:39:05;;;;;;;17.02;15.30;;;20.70;87.50;;;20.43;70.12;98103.00;5045091;28;20051;-33
2021/06/09 08:41:43;;;;;;;18.50;16.13;;;20.70;85.50;;;20.43;69.72;98103.00;5048611;28;20079;-32
2021/06/09 08:44:11;;;;;;;15.82;14.00;;;20.80;84.00;;;20.49;69.90;98098.59;5064345;28;20350;-32
2021/06/09 08:46:39;;;;;;;16.63;14.93;;;20.80;86.10;;;20.54;69.84;98107.72;5065512;28;20057;-32
2021/06/09 08:49:08;;;;;;;19.77;14.45;;;20.90;86.40;;;20.59;69.85;98105.25;5048705;28;20544;-32
2021/06/09 08:51:39;;;;;;;16.02;14.48;;;20.90;86.00;;;20.67;69.47;98106.06;5066231;28;20036;-32
2021/06/09 08:54:11;;;;;;;18.25;13.02;;;21.00;85.70;;;20.73;69.93;98108.72;5079616;28;20058;-32
2021/06/09 08:56:40;;;;;;;16.65;14.85;;;21.10;85.90;;;20.82;69.56;98112.00;5057461;28;20048;-32
2021/06/09 08:59:13;;;;;;;15.32;13.57;;;21.20;85.60;;;20.81;68.45;98104.94;5065251;28;20052;-32
2021/06/09 09:01:44;;;;;;;16.83;14.02;;;21.20;83.70;;;20.84;67.77;98108.06;5081588;28;20065;-33
2021/06/09 09:04:14;;;;;;;14.88;13.38;;;21.20;82.20;;;20.91;67.83;98109.91;5081000;28;20050;-33
2021/06/09 09:06:44;;;;;;;14.88;13.38;;;21.30;83.00;;;20.97;68.00;98109.03;5066898;28;20369;-32
2021/06/09 09:09:15;;;;;;;17.13;14.48;;;21.40;83.10;;;21.02;67.88;98111.94;5080958;28;20238;-33
2021/06/09 09:11:42;;;;;;;15.45;13.85;;;21.50;83.00;;;21.11;67.75;98107.06;5082705;28;20059;-33
2021/06/09 09:14:15;;;;;;;14.70;13.05;;;21.50;82.60;;;21.16;67.86;98109.97;5082374;28;20048;-33
2021/06/09 09:17:06;;;;;;;15.45;12.95;;;21.70;81.90;;;21.26;66.42;98104.06;5082647;28;20048;-32
2021/06/09 09:19:40;;;;;;;14.20;12.80;;;21.80;80.60;;;21.32;67.64;98112.13;5081366;28;20040;-32
2021/06/09 09:22:16;;;;;;;18.42;14.40;;;21.80;81.50;;;21.39;66.49;98106.69;5080755;28;20052;-32
2021/06/09 09:24:50;;;;;;;15.63;13.05;;;21.80;79.90;;;21.47;66.73;98106.44;5078339;28;20280;-33
2021/06/09 09:27:28;;;;;;;16.05;14.00;;;21.90;80.70;;;21.54;67.08;98111.78;5062659;28;20265;-33
2021/06/09 09:30:07;;;;;;;13.43;12.10;;;22.00;81.60;;;21.68;66.95;98104.41;5063215;28;20054;-33
2021/06/09 09:32:38;;;;;;;16.05;14.40;;;22.10;81.10;;;21.76;66.92;98110.38;5083225;28;20048;-32
2021/06/09 09:35:11;;;;;;;15.70;13.38;;;22.30;80.50;;;21.81;66.44;98107.84;5082069;28;20045;-33
2021/06/09 09:37:40;;;;;;;;;;;22.40;79.80;;;21.85;67.29;98110.09;5081150;28;20044;-33
2021/06/09 09:40:08;;;;;;;13.52;12.23;;;22.40;77.40;;;21.98;66.03;98109.97;5081234;28;19917;-33
2021/06/09 09:42:36;;;;;;;13.75;12.30;;;22.50;78.40;;;22.08;65.90;98114.88;5081109;28;20242;-33
2021/06/09 09:45:21;;;;;;;12.82;11.50;;;22.70;79.30;;;22.17;66.23;98106.22;5079771;28;20046;-33
2021/06/09 09:48:10;;;;;;;16.40;11.90;;;22.80;76.30;;;22.27;64.72;98113.03;5076185;28;20060;-34
2021/06/09 09:50:50;;;;;;;13.40;12.02;;;22.90;76.00;;;22.33;64.79;98107.56;5054153;28;20055;-34
2021/06/09 09:53:27;;;;;;;14.90;12.40;;;22.90;76.60;;;22.40;65.08;98104.75;5070800;28;20242;-33
2021/06/09 09:56:04;;;;;;;13.63;12.15;;;22.90;77.80;;;22.44;64.44;98111.38;5052777;28;20054;-33
2021/06/09 09:58:39;;;;;;;15.55;13.80;;;23.00;76.40;;;22.47;64.49;98113.66;5067580;28;20052;-33
2021/06/09 10:01:22;;;;;;;14.65;13.25;;;23.00;76.00;;;22.50;64.11;98107.78;5067583;28;20064;-33
2021/06/09 10:03:55;;;;;;;13.45;12.15;;;23.10;75.30;;;22.54;64.07;98102.72;5065722;28;20055;-33
2021/06/09 10:06:42;;;;;;;12.68;11.32;;;23.10;76.80;;;22.61;63.67;98096.16;5066979;28;20048;-33
2021/06/09 10:09:15;;;;;;;14.80;13.43;;;23.20;76.60;;;22.70;63.53;98095.84;5067511;28;20497;-33
2021/06/09 10:11:56;;;;;;;13.88;12.48;;;23.30;76.30;;;22.69;62.84;98100.44;5049416;28;20053;-33
2021/06/09 10:14:48;;;;;;;12.50;11.30;;;23.30;74.20;;;22.69;62.28;98099.63;5065625;28;20051;-33
2021/06/09 10:17:26;;;;;;;14.48;13.07;;;23.20;71.10;;;22.67;62.65;98096.31;5066139;28;20450;-33
2021/06/09 10:20:00;;;;;;;13.18;11.52;;;23.20;74.30;;;22.71;62.12;98092.91;5068089;28;20050;-33
2021/06/09 10:22:34;;;;;;;13.07;11.77;;;23.20;74.60;;;22.68;60.20;98092.53;5066396;28;20048;-33
2021/06/09 10:25:10;;;;;;;16.23;12.02;;;23.10;70.30;;;22.62;59.20;98088.84;5049306;28;20044;-33
2021/06/09 10:27:51;;;;;;;12.95;11.55;;;23.00;70.20;;;22.61;60.83;98087.19;5045392;28;20057;-33
2021/06/09 10:30:26;;;;;;;12.90;11.70;;;23.00;72.20;;;22.60;60.68;98082.81;5045175;28;20298;-33